Weather

Currently

Time Weather Temperature Precipitation Clouds Wind Wind Bumps Pressure
06:35 6,9 °C 5,7 °C 0,0 mm/h 93 % 0,7 m/s 1031,2 mb

Current values recorded by the weather station installed in the spa park. Data updated at 6:35.


Forecast

Time Weather Temperature Precipitation Clouds Wind Wind Bumps Pressure
13:00 13,5 °C 0,01 mm/h 38 % 3,9 m/s 9,5 m/s 1017 hPa
14:00 13,7 °C 0,01 mm/h 52 % 3,7 m/s 8,8 m/s 1017 hPa
15:00 13,2 °C 0 mm/h 78 % 3,7 m/s 10,1 m/s 1017 hPa
16:00 12,8 °C 0 mm/h 28 % 3,5 m/s 8,1 m/s 1017 hPa
17:00 12,2 °C 0 mm/h 25 % 3,1 m/s 7,8 m/s 1017 hPa
18:00 10,7 °C 0 mm/h 0 % 2,9 m/s 7,2 m/s 1017 hPa
19:00 9,6 °C 0 mm/h 82 % 2,3 m/s 6,1 m/s 1017 hPa
20:00 8,9 °C 0,01 mm/h 26 % 1,8 m/s 4,5 m/s 1018 hPa
21:00 8,5 °C 0 mm/h 4 % 2,1 m/s 4,1 m/s 1018 hPa
22:00 8,1 °C 0 mm/h 27 % 2,3 m/s 4,6 m/s 1018 hPa
23:00 8,2 °C 0 mm/h 13 % 2,5 m/s 5,1 m/s 1018 hPa

Forecast data of ČHMÚ (Czech hydrometeorological institute) based on Aladin numerical model for Konstantinovy Lázně area. The data is updated daily at 6:00.

Time Weather Temperature Precipitation Clouds Wind Wind Bumps Pressure
00:00 7,8 °C 0 mm/h 0 % 2,1 m/s 5,1 m/s 1018 hPa
01:00 7,3 °C 0 mm/h 0 % 2 m/s 4,2 m/s 1017 hPa
02:00 6,8 °C 0 mm/h 0 % 1,8 m/s 3,7 m/s 1017 hPa
03:00 6,1 °C 0 mm/h 0 % 1,5 m/s 3,1 m/s 1016 hPa
04:00 5,4 °C 0 mm/h 100 % 1,4 m/s 2,2 m/s 1016 hPa
05:00 5,1 °C 0 mm/h 100 % 1,5 m/s 2,1 m/s 1016 hPa
06:00 5 °C 0 mm/h 100 % 1,8 m/s 2,9 m/s 1015 hPa
07:00 5,1 °C 0 mm/h 100 % 1,6 m/s 3,2 m/s 1015 hPa
08:00 4,7 °C 0 mm/h 71 % 1,4 m/s 3 m/s 1015 hPa
09:00 5,5 °C 0 mm/h 100 % 1 m/s 2,3 m/s 1015 hPa
10:00 7 °C 0 mm/h 100 % 0,7 m/s 2,1 m/s 1015 hPa
11:00 9,2 °C 0 mm/h 21 % 1,4 m/s 3,5 m/s 1014 hPa
12:00 11 °C 0 mm/h 19 % 2,1 m/s 4,9 m/s 1013 hPa
13:00 12,3 °C 0 mm/h 7 % 2,3 m/s 5,4 m/s 1012 hPa
14:00 13 °C 0 mm/h 24 % 2,7 m/s 6,3 m/s 1011 hPa
15:00 13,1 °C 0 mm/h 14 % 2,5 m/s 6,3 m/s 1010 hPa
16:00 12,8 °C 0 mm/h 47 % 2,2 m/s 5,7 m/s 1010 hPa
17:00 12 °C 0 mm/h 55 % 1,7 m/s 5 m/s 1009 hPa
18:00 10,3 °C 0 mm/h 28 % 1,4 m/s 3,6 m/s 1009 hPa
19:00 8,9 °C 0 mm/h 45 % 1,1 m/s 2 m/s 1008 hPa
20:00 8 °C 0 mm/h 92 % 1,2 m/s 1,5 m/s 1008 hPa
21:00 7,6 °C 0 mm/h 95 % 1,6 m/s 2,1 m/s 1008 hPa
22:00 7,1 °C 0 mm/h 94 % 1,4 m/s 2,2 m/s 1007 hPa
23:00 6,8 °C 0 mm/h 76 % 1,5 m/s 2,1 m/s 1007 hPa

Forecast data of ČHMÚ (Czech hydrometeorological institute) based on Aladin numerical model for Konstantinovy Lázně area. The data is updated daily at 6:00.

Time Weather Temperature Precipitation Clouds Wind Wind Bumps Pressure
00:00 6,4 °C 0 mm/h 60 % 1,8 m/s 2,5 m/s 1007 hPa
01:00 6,7 °C 0 mm/h 60 % 2,2 m/s 3,7 m/s 1006 hPa
02:00 7,2 °C 0 mm/h 58 % 2,4 m/s 4,6 m/s 1005 hPa
03:00 6,7 °C 0 mm/h 32 % 1,8 m/s 4,5 m/s 1005 hPa
04:00 5,7 °C 0 mm/h 29 % 1,1 m/s 2,9 m/s 1005 hPa
05:00 4,9 °C 0 mm/h 42 % 0,7 m/s 1,5 m/s 1005 hPa
06:00 4,6 °C 0 mm/h 100 % 1,8 m/s 2,7 m/s 1005 hPa
07:00 4,5 °C 0 mm/h 92 % 1,2 m/s 3,2 m/s 1005 hPa
08:00 4,5 °C 0 mm/h 95 % 1,2 m/s 1,6 m/s 1005 hPa
09:00 5,7 °C 0 mm/h 90 % 0,9 m/s 1,7 m/s 1005 hPa
10:00 7,8 °C 0 mm/h 89 % 1 m/s 2,6 m/s 1005 hPa
11:00 9,9 °C 0 mm/h 95 % 2 m/s 4,7 m/s 1006 hPa
12:00 10,7 °C 0 mm/h 86 % 2,2 m/s 5,4 m/s 1006 hPa
13:00 11,4 °C 0,01 mm/h 99 % 2,7 m/s 6,2 m/s 1006 hPa
14:00 10,7 °C 0,02 mm/h 100 % 3 m/s 7,8 m/s 1006 hPa
15:00 10 °C 0 mm/h 100 % 2,9 m/s 7 m/s 1006 hPa
16:00 8,9 °C 0,02 mm/h 100 % 3,1 m/s 8,9 m/s 1007 hPa
17:00 8,4 °C 0,02 mm/h 100 % 2,6 m/s 6,8 m/s 1007 hPa
18:00 7,8 °C 0,29 mm/h 100 % 2,5 m/s 6,5 m/s 1008 hPa
19:00 7,5 °C 0,8 mm/h 100 % 2,4 m/s 5,5 m/s 1008 hPa
20:00 7,2 °C 0,7 mm/h 100 % 2,2 m/s 5,4 m/s 1008 hPa
21:00 7 °C 0,36 mm/h 100 % 1,5 m/s 4,7 m/s 1009 hPa
22:00 6,9 °C 0,32 mm/h 100 % 2,1 m/s 4,8 m/s 1010 hPa
23:00 6,8 °C 0,38 mm/h 100 % 1,4 m/s 4,9 m/s 1010 hPa

Forecast data of ČHMÚ (Czech hydrometeorological institute) based on Aladin numerical model for Konstantinovy Lázně area. The data is updated daily at 6:00.